sensor_id;sensor_type;location;lat;lon;timestamp;P1;durP1;ratioP1;P2;durP2;ratioP2
7203;SDS011;3643;52.460;13.322;2023-05-10T00:01:55;5.67;;;4.33;;
7203;SDS011;3643;52.460;13.322;2023-05-10T00:04:24;4.20;;;3.80;;
7203;SDS011;3643;52.460;13.322;2023-05-10T00:06:53;6.20;;;4.57;;
7203;SDS011;3643;52.460;13.322;2023-05-10T00:09:22;9.43;;;4.67;;
7203;SDS011;3643;52.460;13.322;2023-05-10T00:11:50;5.00;;;4.47;;
7203;SDS011;3643;52.460;13.322;2023-05-10T00:14:19;5.10;;;4.27;;
7203;SDS011;3643;52.460;13.322;2023-05-10T00:16:47;5.33;;;4.33;;
7203;SDS011;3643;52.460;13.322;2023-05-10T00:19:17;5.73;;;4.70;;
7203;SDS011;3643;52.460;13.322;2023-05-10T00:21:46;5.33;;;4.20;;
7203;SDS011;3643;52.460;13.322;2023-05-10T00:24:14;5.83;;;4.33;;
7203;SDS011;3643;52.460;13.322;2023-05-10T00:26:42;5.97;;;4.53;;
7203;SDS011;3643;52.460;13.322;2023-05-10T00:29:11;7.80;;;4.87;;
7203;SDS011;3643;52.460;13.322;2023-05-10T00:31:39;7.20;;;4.67;;
7203;SDS011;3643;52.460;13.322;2023-05-10T00:34:07;5.27;;;4.37;;
7203;SDS011;3643;52.460;13.322;2023-05-10T00:36:38;8.33;;;4.33;;
7203;SDS011;3643;52.460;13.322;2023-05-10T00:39:07;5.00;;;4.50;;
7203;SDS011;3643;52.460;13.322;2023-05-10T00:41:35;9.10;;;4.97;;
7203;SDS011;3643;52.460;13.322;2023-05-10T00:44:04;7.40;;;4.83;;
7203;SDS011;3643;52.460;13.322;2023-05-10T00:46:32;5.90;;;4.43;;
7203;SDS011;3643;52.460;13.322;2023-05-10T00:49:01;6.10;;;4.73;;
7203;SDS011;3643;52.460;13.322;2023-05-10T00:51:30;7.07;;;4.37;;
7203;SDS011;3643;52.460;13.322;2023-05-10T00:54:01;6.47;;;4.43;;
7203;SDS011;3643;52.460;13.322;2023-05-10T00:56:30;7.87;;;4.83;;
7203;SDS011;3643;52.460;13.322;2023-05-10T00:58:59;4.53;;;3.90;;
7203;SDS011;3643;52.460;13.322;2023-05-10T01:01:27;6.87;;;4.77;;
7203;SDS011;3643;52.460;13.322;2023-05-10T01:03:57;7.33;;;4.77;;
7203;SDS011;3643;52.460;13.322;2023-05-10T01:06:26;7.27;;;4.60;;
7203;SDS011;3643;52.460;13.322;2023-05-10T01:08:55;5.37;;;4.63;;
7203;SDS011;3643;52.460;13.322;2023-05-10T01:11:25;6.77;;;4.60;;
7203;SDS011;3643;52.460;13.322;2023-05-10T03:32:02;5.70;;;4.67;;
7203;SDS011;3643;52.460;13.322;2023-05-10T03:34:31;7.70;;;5.20;;
7203;SDS011;3643;52.460;13.322;2023-05-10T03:36:59;6.77;;;4.87;;
7203;SDS011;3643;52.460;13.322;2023-05-10T03:39:28;8.00;;;5.03;;
7203;SDS011;3643;52.460;13.322;2023-05-10T03:41:56;6.27;;;4.90;;
7203;SDS011;3643;52.460;13.322;2023-05-10T03:44:25;6.77;;;4.93;;
7203;SDS011;3643;52.460;13.322;2023-05-10T03:46:53;7.67;;;4.50;;
7203;SDS011;3643;52.460;13.322;2023-05-10T03:49:25;7.23;;;4.53;;
7203;SDS011;3643;52.460;13.322;2023-05-10T03:51:53;6.37;;;4.90;;
7203;SDS011;3643;52.460;13.322;2023-05-10T03:54:21;9.43;;;4.63;;
7203;SDS011;3643;52.460;13.322;2023-05-10T03:56:50;5.53;;;4.40;;
7203;SDS011;3643;52.460;13.322;2023-05-10T03:59:18;6.23;;;4.50;;
7203;SDS011;3643;52.460;13.322;2023-05-10T04:01:46;6.37;;;4.47;;
7203;SDS011;3643;52.460;13.322;2023-05-10T04:04:14;7.57;;;4.80;;
7203;SDS011;3643;52.460;13.322;2023-05-10T04:06:46;6.17;;;4.23;;
7203;SDS011;3643;52.460;13.322;2023-05-10T04:09:14;7.53;;;4.73;;
7203;SDS011;3643;52.460;13.322;2023-05-10T04:11:42;7.37;;;5.03;;
7203;SDS011;3643;52.460;13.322;2023-05-10T04:14:10;9.83;;;4.40;;
7203;SDS011;3643;52.460;13.322;2023-05-10T04:16:39;6.30;;;3.87;;
7203;SDS011;3643;52.460;13.322;2023-05-10T04:19:07;5.27;;;4.10;;
7203;SDS011;3643;52.460;13.322;2023-05-10T04:21:35;5.03;;;4.20;;
7203;SDS011;3643;52.460;13.322;2023-05-10T04:24:05;5.57;;;4.40;;
7203;SDS011;3643;52.460;13.322;2023-05-10T04:26:33;7.47;;;4.43;;
7203;SDS011;3643;52.460;13.322;2023-05-10T04:29:01;8.03;;;4.33;;
7203;SDS011;3643;52.460;13.322;2023-05-10T04:31:29;4.90;;;4.40;;
7203;SDS011;3643;52.460;13.322;2023-05-10T04:33:57;7.80;;;4.80;;
7203;SDS011;3643;52.460;13.322;2023-05-10T04:36:25;5.90;;;4.07;;
7203;SDS011;3643;52.460;13.322;2023-05-10T04:38:53;7.87;;;4.27;;
7203;SDS011;3643;52.460;13.322;2023-05-10T04:41:23;7.57;;;5.00;;
7203;SDS011;3643;52.460;13.322;2023-05-10T04:43:51;7.57;;;4.00;;
7203;SDS011;3643;52.460;13.322;2023-05-10T04:46:19;6.80;;;4.60;;
7203;SDS011;3643;52.460;13.322;2023-05-10T04:48:47;5.67;;;4.23;;
7203;SDS011;3643;52.460;13.322;2023-05-10T04:51:15;8.20;;;4.40;;
7203;SDS011;3643;52.460;13.322;2023-05-10T04:53:43;8.10;;;4.17;;
7203;SDS011;3643;52.460;13.322;2023-05-10T04:56:31;10.83;;;5.80;;
7203;SDS011;3643;52.460;13.322;2023-05-10T04:59:00;9.57;;;4.13;;
7203;SDS011;3643;52.460;13.322;2023-05-10T05:01:28;7.20;;;4.40;;
7203;SDS011;3643;52.460;13.322;2023-05-10T05:03:57;6.27;;;4.27;;
7203;SDS011;3643;52.460;13.322;2023-05-10T05:06:25;5.60;;;3.90;;
7203;SDS011;3643;52.460;13.322;2023-05-10T05:08:53;5.27;;;4.20;;
7203;SDS011;3643;52.460;13.322;2023-05-10T05:11:22;6.73;;;4.87;;
7203;SDS011;3643;52.460;13.322;2023-05-10T05:13:51;6.03;;;4.10;;
7203;SDS011;3643;52.460;13.322;2023-05-10T05:16:19;5.77;;;3.83;;
7203;SDS011;3643;52.460;13.322;2023-05-10T05:18:48;3.97;;;3.50;;
7203;SDS011;3643;52.460;13.322;2023-05-10T05:21:16;9.00;;;4.30;;
7203;SDS011;3643;52.460;13.322;2023-05-10T05:23:45;5.43;;;3.67;;
7203;SDS011;3643;52.460;13.322;2023-05-10T05:26:13;7.97;;;3.63;;
7203;SDS011;3643;52.460;13.322;2023-05-10T05:28:42;6.17;;;3.60;;
7203;SDS011;3643;52.460;13.322;2023-05-10T05:31:11;5.93;;;4.00;;
7203;SDS011;3643;52.460;13.322;2023-05-10T05:33:40;7.07;;;3.57;;
7203;SDS011;3643;52.460;13.322;2023-05-10T05:36:08;6.07;;;3.63;;
7203;SDS011;3643;52.460;13.322;2023-05-10T05:38:36;7.27;;;3.63;;
7203;SDS011;3643;52.460;13.322;2023-05-10T05:41:05;4.67;;;4.17;;
7203;SDS011;3643;52.460;13.322;2023-05-10T05:43:33;6.13;;;3.30;;
7203;SDS011;3643;52.460;13.322;2023-05-10T05:46:03;3.40;;;3.10;;
7203;SDS011;3643;52.460;13.322;2023-05-10T05:48:33;6.27;;;3.40;;
7203;SDS011;3643;52.460;13.322;2023-05-10T05:51:01;5.70;;;3.63;;
7203;SDS011;3643;52.460;13.322;2023-05-10T05:53:32;4.63;;;3.10;;
7203;SDS011;3643;52.460;13.322;2023-05-10T05:56:00;6.20;;;3.27;;
7203;SDS011;3643;52.460;13.322;2023-05-10T05:58:29;7.00;;;3.57;;
7203;SDS011;3643;52.460;13.322;2023-05-10T06:00:58;4.68;;;3.00;;
7203;SDS011;3643;52.460;13.322;2023-05-10T06:03:26;6.50;;;3.40;;
7203;SDS011;3643;52.460;13.322;2023-05-10T06:05:56;5.53;;;3.95;;
7203;SDS011;3643;52.460;13.322;2023-05-10T06:08:24;4.07;;;3.15;;
7203;SDS011;3643;52.460;13.322;2023-05-10T06:10:52;7.68;;;3.17;;
7203;SDS011;3643;52.460;13.322;2023-05-10T06:13:20;4.43;;;3.80;;
7203;SDS011;3643;52.460;13.322;2023-05-10T06:15:48;7.95;;;5.07;;
7203;SDS011;3643;52.460;13.322;2023-05-10T06:18:17;5.75;;;3.08;;
7203;SDS011;3643;52.460;13.322;2023-05-10T06:20:45;7.05;;;3.30;;
7203;SDS011;3643;52.460;13.322;2023-05-10T06:23:14;6.28;;;4.03;;
7203;SDS011;3643;52.460;13.322;2023-05-10T06:25:43;5.75;;;4.85;;
7203;SDS011;3643;52.460;13.322;2023-05-10T06:28:11;3.95;;;3.05;;
7203;SDS011;3643;52.460;13.322;2023-05-10T06:30:39;3.92;;;3.50;;
7203;SDS011;3643;52.460;13.322;2023-05-10T06:33:07;7.57;;;3.35;;
7203;SDS011;3643;52.460;13.322;2023-05-10T06:35:35;10.82;;;9.60;;
7203;SDS011;3643;52.460;13.322;2023-05-10T06:38:03;3.40;;;3.10;;
7203;SDS011;3643;52.460;13.322;2023-05-10T06:40:33;5.20;;;3.03;;
7203;SDS011;3643;52.460;13.322;2023-05-10T06:43:02;4.50;;;2.92;;
7203;SDS011;3643;52.460;13.322;2023-05-10T06:45:30;7.85;;;3.70;;
7203;SDS011;3643;52.460;13.322;2023-05-10T06:47:58;5.22;;;3.22;;
7203;SDS011;3643;52.460;13.322;2023-05-10T06:50:27;2.60;;;2.40;;
7203;SDS011;3643;52.460;13.322;2023-05-10T06:52:55;6.28;;;4.15;;
7203;SDS011;3643;52.460;13.322;2023-05-10T06:55:23;4.30;;;3.90;;
7203;SDS011;3643;52.460;13.322;2023-05-10T06:57:53;4.10;;;3.28;;
7203;SDS011;3643;52.460;13.322;2023-05-10T07:00:21;4.68;;;4.15;;
7203;SDS011;3643;52.460;13.322;2023-05-10T07:02:50;4.88;;;3.45;;
7203;SDS011;3643;52.460;13.322;2023-05-10T07:05:18;6.30;;;3.50;;
7203;SDS011;3643;52.460;13.322;2023-05-10T07:07:47;3.72;;;3.42;;
7203;SDS011;3643;52.460;13.322;2023-05-10T07:10:15;6.85;;;4.63;;
7203;SDS011;3643;52.460;13.322;2023-05-10T07:12:43;3.22;;;2.70;;
7203;SDS011;3643;52.460;13.322;2023-05-10T07:15:13;4.20;;;2.72;;
7203;SDS011;3643;52.460;13.322;2023-05-10T07:17:42;3.45;;;2.78;;
7203;SDS011;3643;52.460;13.322;2023-05-10T07:20:12;2.75;;;2.55;;
7203;SDS011;3643;52.460;13.322;2023-05-10T07:22:40;2.95;;;2.72;;
7203;SDS011;3643;52.460;13.322;2023-05-10T07:25:09;4.80;;;2.92;;
7203;SDS011;3643;52.460;13.322;2023-05-10T07:27:37;3.10;;;2.90;;
7203;SDS011;3643;52.460;13.322;2023-05-10T07:30:06;3.58;;;2.40;;
7203;SDS011;3643;52.460;13.322;2023-05-10T07:32:36;2.88;;;2.67;;
7203;SDS011;3643;52.460;13.322;2023-05-10T07:35:06;5.20;;;3.55;;
7203;SDS011;3643;52.460;13.322;2023-05-10T07:37:34;5.93;;;2.92;;
7203;SDS011;3643;52.460;13.322;2023-05-10T07:40:03;4.18;;;2.97;;
7203;SDS011;3643;52.460;13.322;2023-05-10T07:42:31;5.18;;;3.30;;
7203;SDS011;3643;52.460;13.322;2023-05-10T07:45:00;5.43;;;2.83;;
7203;SDS011;3643;52.460;13.322;2023-05-10T07:47:28;3.53;;;2.63;;
7203;SDS011;3643;52.460;13.322;2023-05-10T07:49:57;4.93;;;2.65;;
7203;SDS011;3643;52.460;13.322;2023-05-10T07:52:26;3.53;;;2.40;;
7203;SDS011;3643;52.460;13.322;2023-05-10T07:54:54;5.38;;;3.67;;
7203;SDS011;3643;52.460;13.322;2023-05-10T07:57:23;2.92;;;2.63;;
7203;SDS011;3643;52.460;13.322;2023-05-10T07:59:51;3.70;;;2.65;;
7203;SDS011;3643;52.460;13.322;2023-05-10T08:02:19;3.00;;;2.67;;
7203;SDS011;3643;52.460;13.322;2023-05-10T08:04:47;4.05;;;2.60;;
7203;SDS011;3643;52.460;13.322;2023-05-10T08:07:17;3.67;;;2.65;;
7203;SDS011;3643;52.460;13.322;2023-05-10T08:09:45;4.05;;;2.70;;
7203;SDS011;3643;52.460;13.322;2023-05-10T08:12:13;3.67;;;2.67;;
7203;SDS011;3643;52.460;13.322;2023-05-10T08:14:42;3.20;;;2.67;;
7203;SDS011;3643;52.460;13.322;2023-05-10T08:17:10;7.18;;;2.78;;
7203;SDS011;3643;52.460;13.322;2023-05-10T08:19:38;9.65;;;4.07;;
7203;SDS011;3643;52.460;13.322;2023-05-10T08:22:06;4.55;;;2.97;;
7203;SDS011;3643;52.460;13.322;2023-05-10T08:24:36;3.53;;;2.58;;
7203;SDS011;3643;52.460;13.322;2023-05-10T08:27:05;5.25;;;2.80;;
7203;SDS011;3643;52.460;13.322;2023-05-10T08:29:33;4.05;;;2.60;;
7203;SDS011;3643;52.460;13.322;2023-05-10T08:32:15;3.33;;;2.47;;
7203;SDS011;3643;52.460;13.322;2023-05-10T08:34:43;8.65;;;4.53;;
7203;SDS011;3643;52.460;13.322;2023-05-10T08:37:12;5.30;;;2.90;;
7203;SDS011;3643;52.460;13.322;2023-05-10T08:39:41;6.30;;;5.20;;
7203;SDS011;3643;52.460;13.322;2023-05-10T08:42:09;5.50;;;2.63;;
7203;SDS011;3643;52.460;13.322;2023-05-10T08:44:38;4.03;;;3.13;;
7203;SDS011;3643;52.460;13.322;2023-05-10T08:47:06;4.50;;;2.43;;
7203;SDS011;3643;52.460;13.322;2023-05-10T08:49:36;4.13;;;3.07;;
7203;SDS011;3643;52.460;13.322;2023-05-10T08:52:05;4.10;;;3.70;;
7203;SDS011;3643;52.460;13.322;2023-05-10T08:54:34;5.00;;;2.60;;
7203;SDS011;3643;52.460;13.322;2023-05-10T08:57:05;5.33;;;3.17;;
7203;SDS011;3643;52.460;13.322;2023-05-10T08:59:33;3.50;;;2.73;;
7203;SDS011;3643;52.460;13.322;2023-05-10T09:02:02;4.20;;;2.70;;
7203;SDS011;3643;52.460;13.322;2023-05-10T09:04:32;3.17;;;2.87;;
7203;SDS011;3643;52.460;13.322;2023-05-10T09:07:00;3.20;;;2.70;;
7203;SDS011;3643;52.460;13.322;2023-05-10T09:09:28;3.00;;;2.70;;
7203;SDS011;3643;52.460;13.322;2023-05-10T09:11:57;3.40;;;2.47;;
7203;SDS011;3643;52.460;13.322;2023-05-10T09:14:26;2.90;;;2.30;;
7203;SDS011;3643;52.460;13.322;2023-05-10T09:16:55;3.50;;;2.70;;
7203;SDS011;3643;52.460;13.322;2023-05-10T09:19:24;2.70;;;2.50;;
7203;SDS011;3643;52.460;13.322;2023-05-10T09:21:52;4.87;;;2.60;;
7203;SDS011;3643;52.460;13.322;2023-05-10T09:24:24;3.27;;;2.60;;
7203;SDS011;3643;52.460;13.322;2023-05-10T09:26:53;6.37;;;2.80;;
7203;SDS011;3643;52.460;13.322;2023-05-10T09:29:21;4.00;;;2.90;;
7203;SDS011;3643;52.460;13.322;2023-05-10T09:31:51;3.63;;;2.83;;
7203;SDS011;3643;52.460;13.322;2023-05-10T09:34:22;3.87;;;2.30;;
7203;SDS011;3643;52.460;13.322;2023-05-10T09:36:58;5.63;;;2.70;;
7203;SDS011;3643;52.460;13.322;2023-05-10T09:39:30;3.73;;;2.90;;
7203;SDS011;3643;52.460;13.322;2023-05-10T09:41:59;2.93;;;2.70;;
7203;SDS011;3643;52.460;13.322;2023-05-10T09:44:30;3.13;;;2.60;;
7203;SDS011;3643;52.460;13.322;2023-05-10T09:47:00;3.07;;;2.70;;
7203;SDS011;3643;52.460;13.322;2023-05-10T09:49:29;3.00;;;2.70;;
7203;SDS011;3643;52.460;13.322;2023-05-10T09:51:59;4.33;;;2.63;;
7203;SDS011;3643;52.460;13.322;2023-05-10T09:54:29;5.17;;;2.60;;
7203;SDS011;3643;52.460;13.322;2023-05-10T09:56:58;4.23;;;2.60;;
7203;SDS011;3643;52.460;13.322;2023-05-10T09:59:27;6.37;;;2.80;;
7203;SDS011;3643;52.460;13.322;2023-05-10T10:01:57;7.13;;;3.17;;
7203;SDS011;3643;52.460;13.322;2023-05-10T10:04:28;4.10;;;2.93;;
7203;SDS011;3643;52.460;13.322;2023-05-10T10:07:00;3.50;;;2.57;;
7203;SDS011;3643;52.460;13.322;2023-05-10T10:09:30;4.07;;;3.00;;
7203;SDS011;3643;52.460;13.322;2023-05-10T10:11:58;3.13;;;2.37;;
7203;SDS011;3643;52.460;13.322;2023-05-10T10:14:27;3.70;;;2.47;;
7203;SDS011;3643;52.460;13.322;2023-05-10T10:16:56;3.23;;;2.70;;
7203;SDS011;3643;52.460;13.322;2023-05-10T10:19:35;2.77;;;2.47;;
7203;SDS011;3643;52.460;13.322;2023-05-10T10:22:04;4.67;;;2.90;;
7203;SDS011;3643;52.460;13.322;2023-05-10T10:24:33;3.63;;;2.60;;
7203;SDS011;3643;52.460;13.322;2023-05-10T10:27:04;2.90;;;2.53;;
7203;SDS011;3643;52.460;13.322;2023-05-10T10:29:39;4.90;;;2.67;;
7203;SDS011;3643;52.460;13.322;2023-05-10T10:32:19;5.57;;;3.13;;
7203;SDS011;3643;52.460;13.322;2023-05-10T10:34:55;2.73;;;2.40;;
7203;SDS011;3643;52.460;13.322;2023-05-10T10:37:23;6.43;;;2.80;;
7203;SDS011;3643;52.460;13.322;2023-05-10T10:40:23;6.57;;;3.03;;
7203;SDS011;3643;52.460;13.322;2023-05-10T10:43:20;4.40;;;2.60;;
7203;SDS011;3643;52.460;13.322;2023-05-10T10:48:47;3.70;;;2.57;;
7203;SDS011;3643;52.460;13.322;2023-05-10T10:51:19;3.90;;;2.60;;
7203;SDS011;3643;52.460;13.322;2023-05-10T10:53:47;4.87;;;2.50;;
7203;SDS011;3643;52.460;13.322;2023-05-10T10:56:16;3.33;;;2.77;;
7203;SDS011;3643;52.460;13.322;2023-05-10T10:58:51;7.40;;;2.83;;
7203;SDS011;3643;52.460;13.322;2023-05-10T11:01:20;4.10;;;2.63;;
7203;SDS011;3643;52.460;13.322;2023-05-10T11:06:48;7.00;;;2.47;;
7203;SDS011;3643;52.460;13.322;2023-05-10T11:09:16;4.27;;;2.47;;
7203;SDS011;3643;52.460;13.322;2023-05-10T11:11:51;3.10;;;2.33;;
7203;SDS011;3643;52.460;13.322;2023-05-10T11:14:21;3.50;;;2.50;;
7203;SDS011;3643;52.460;13.322;2023-05-10T11:16:50;4.20;;;2.67;;
7203;SDS011;3643;52.460;13.322;2023-05-10T11:19:19;7.63;;;3.37;;
7203;SDS011;3643;52.460;13.322;2023-05-10T11:21:49;3.17;;;2.87;;
7203;SDS011;3643;52.460;13.322;2023-05-10T11:24:20;4.90;;;3.33;;
7203;SDS011;3643;52.460;13.322;2023-05-10T11:26:50;3.93;;;2.57;;
7203;SDS011;3643;52.460;13.322;2023-05-10T11:29:20;3.03;;;2.57;;
7203;SDS011;3643;52.460;13.322;2023-05-10T11:31:48;5.47;;;2.60;;
7203;SDS011;3643;52.460;13.322;2023-05-10T11:34:24;3.43;;;3.13;;
7203;SDS011;3643;52.460;13.322;2023-05-10T11:36:55;8.97;;;4.70;;
7203;SDS011;3643;52.460;13.322;2023-05-10T11:39:25;3.60;;;3.03;;
7203;SDS011;3643;52.460;13.322;2023-05-10T11:41:54;3.13;;;2.93;;
7203;SDS011;3643;52.460;13.322;2023-05-10T11:44:23;2.97;;;2.70;;
7203;SDS011;3643;52.460;13.322;2023-05-10T11:46:57;5.30;;;4.77;;
7203;SDS011;3643;52.460;13.322;2023-05-10T11:49:26;4.80;;;2.50;;
7203;SDS011;3643;52.460;13.322;2023-05-10T11:52:04;4.87;;;2.80;;
7203;SDS011;3643;52.460;13.322;2023-05-10T11:54:33;2.73;;;2.27;;
7203;SDS011;3643;52.460;13.322;2023-05-10T11:57:02;3.37;;;2.63;;
7203;SDS011;3643;52.460;13.322;2023-05-10T11:59:31;2.67;;;2.47;;
7203;SDS011;3643;52.460;13.322;2023-05-10T12:01:59;5.27;;;2.73;;
7203;SDS011;3643;52.460;13.322;2023-05-10T12:04:28;3.40;;;2.33;;
7203;SDS011;3643;52.460;13.322;2023-05-10T12:06:56;4.10;;;2.50;;
7203;SDS011;3643;52.460;13.322;2023-05-10T12:09:26;2.43;;;2.23;;
7203;SDS011;3643;52.460;13.322;2023-05-10T12:12:08;5.27;;;2.33;;
7203;SDS011;3643;52.460;13.322;2023-05-10T12:14:37;3.53;;;2.03;;
7203;SDS011;3643;52.460;13.322;2023-05-10T12:17:05;5.13;;;3.03;;
7203;SDS011;3643;52.460;13.322;2023-05-10T12:19:37;6.37;;;4.30;;
7203;SDS011;3643;52.460;13.322;2023-05-10T12:22:05;7.50;;;3.30;;
7203;SDS011;3643;52.460;13.322;2023-05-10T12:24:35;8.63;;;3.30;;
7203;SDS011;3643;52.460;13.322;2023-05-10T12:27:04;2.90;;;2.70;;
7203;SDS011;3643;52.460;13.322;2023-05-10T12:29:34;2.97;;;2.37;;
7203;SDS011;3643;52.460;13.322;2023-05-10T12:32:03;4.53;;;2.53;;
7203;SDS011;3643;52.460;13.322;2023-05-10T12:34:31;4.50;;;2.50;;
7203;SDS011;3643;52.460;13.322;2023-05-10T12:37:01;3.87;;;2.70;;
7203;SDS011;3643;52.460;13.322;2023-05-10T12:39:40;5.63;;;2.50;;
7203;SDS011;3643;52.460;13.322;2023-05-10T12:42:10;2.90;;;2.27;;
7203;SDS011;3643;52.460;13.322;2023-05-10T12:44:39;3.70;;;2.50;;
7203;SDS011;3643;52.460;13.322;2023-05-10T12:47:08;4.57;;;2.53;;
7203;SDS011;3643;52.460;13.322;2023-05-10T12:49:37;4.83;;;2.83;;
7203;SDS011;3643;52.460;13.322;2023-05-10T12:52:05;3.47;;;2.60;;
7203;SDS011;3643;52.460;13.322;2023-05-10T12:54:33;3.53;;;3.17;;
7203;SDS011;3643;52.460;13.322;2023-05-10T12:57:03;3.33;;;3.00;;
7203;SDS011;3643;52.460;13.322;2023-05-10T12:59:31;2.97;;;2.70;;
7203;SDS011;3643;52.460;13.322;2023-05-10T13:02:03;3.50;;;3.20;;
7203;SDS011;3643;52.460;13.322;2023-05-10T13:04:31;3.67;;;2.90;;
7203;SDS011;3643;52.460;13.322;2023-05-10T13:07:00;4.73;;;2.73;;
7203;SDS011;3643;52.460;13.322;2023-05-10T13:09:28;3.50;;;2.10;;
7203;SDS011;3643;52.460;13.322;2023-05-10T13:11:56;4.30;;;2.60;;
7203;SDS011;3643;52.460;13.322;2023-05-10T13:14:26;3.33;;;2.90;;
7203;SDS011;3643;52.460;13.322;2023-05-10T13:16:54;5.37;;;3.03;;
7203;SDS011;3643;52.460;13.322;2023-05-10T13:19:23;5.47;;;2.83;;
7203;SDS011;3643;52.460;13.322;2023-05-10T13:21:51;7.17;;;3.30;;
7203;SDS011;3643;52.460;13.322;2023-05-10T13:24:19;4.70;;;2.50;;
7203;SDS011;3643;52.460;13.322;2023-05-10T13:26:48;4.80;;;4.07;;
7203;SDS011;3643;52.460;13.322;2023-05-10T13:29:16;4.40;;;2.90;;
7203;SDS011;3643;52.460;13.322;2023-05-10T13:31:46;5.67;;;3.27;;
7203;SDS011;3643;52.460;13.322;2023-05-10T13:34:15;4.13;;;2.73;;
7203;SDS011;3643;52.460;13.322;2023-05-10T13:36:46;14.67;;;4.60;;
7203;SDS011;3643;52.460;13.322;2023-05-10T13:39:15;4.60;;;3.20;;
7203;SDS011;3643;52.460;13.322;2023-05-10T13:41:43;5.10;;;3.63;;
7203;SDS011;3643;52.460;13.322;2023-05-10T13:44:12;4.37;;;2.90;;
7203;SDS011;3643;52.460;13.322;2023-05-10T13:46:40;4.60;;;2.67;;
7203;SDS011;3643;52.460;13.322;2023-05-10T13:49:11;4.53;;;2.90;;
7203;SDS011;3643;52.460;13.322;2023-05-10T13:51:39;2.87;;;2.50;;
7203;SDS011;3643;52.460;13.322;2023-05-10T13:54:08;3.37;;;2.83;;
7203;SDS011;3643;52.460;13.322;2023-05-10T13:56:38;4.43;;;2.77;;
7203;SDS011;3643;52.460;13.322;2023-05-10T13:59:07;4.13;;;2.53;;
7203;SDS011;3643;52.460;13.322;2023-05-10T14:01:35;6.37;;;2.73;;
7203;SDS011;3643;52.460;13.322;2023-05-10T14:04:04;4.13;;;2.57;;
7203;SDS011;3643;52.460;13.322;2023-05-10T14:06:34;5.60;;;2.60;;
7203;SDS011;3643;52.460;13.322;2023-05-10T14:09:03;3.03;;;2.43;;
7203;SDS011;3643;52.460;13.322;2023-05-10T14:11:31;6.33;;;3.60;;
7203;SDS011;3643;52.460;13.322;2023-05-10T14:13:59;4.57;;;3.07;;
7203;SDS011;3643;52.460;13.322;2023-05-10T14:16:27;2.67;;;2.47;;
7203;SDS011;3643;52.460;13.322;2023-05-10T14:18:56;6.27;;;2.87;;
7203;SDS011;3643;52.460;13.322;2023-05-10T14:21:24;5.80;;;2.57;;
7203;SDS011;3643;52.460;13.322;2023-05-10T14:23:55;4.27;;;2.40;;
7203;SDS011;3643;52.460;13.322;2023-05-10T14:26:23;4.07;;;2.20;;
7203;SDS011;3643;52.460;13.322;2023-05-10T14:28:52;6.43;;;2.40;;
7203;SDS011;3643;52.460;13.322;2023-05-10T14:31:20;2.30;;;2.10;;
7203;SDS011;3643;52.460;13.322;2023-05-10T14:33:51;2.60;;;2.40;;
7203;SDS011;3643;52.460;13.322;2023-05-10T14:36:20;3.63;;;2.60;;
7203;SDS011;3643;52.460;13.322;2023-05-10T14:38:48;2.53;;;2.23;;
7203;SDS011;3643;52.460;13.322;2023-05-10T14:41:18;4.17;;;2.60;;
7203;SDS011;3643;52.460;13.322;2023-05-10T14:43:46;7.17;;;2.63;;
7203;SDS011;3643;52.460;13.322;2023-05-10T14:46:15;3.30;;;2.10;;
7203;SDS011;3643;52.460;13.322;2023-05-10T14:48:43;2.30;;;2.10;;
7203;SDS011;3643;52.460;13.322;2023-05-10T14:51:12;3.37;;;2.37;;
7203;SDS011;3643;52.460;13.322;2023-05-10T14:53:42;4.00;;;2.40;;
7203;SDS011;3643;52.460;13.322;2023-05-10T14:56:11;4.83;;;2.50;;
7203;SDS011;3643;52.460;13.322;2023-05-10T14:58:40;2.63;;;2.33;;
7203;SDS011;3643;52.460;13.322;2023-05-10T15:01:09;4.33;;;2.90;;
7203;SDS011;3643;52.460;13.322;2023-05-10T15:03:37;6.27;;;5.20;;
7203;SDS011;3643;52.460;13.322;2023-05-10T15:06:07;5.20;;;3.43;;
7203;SDS011;3643;52.460;13.322;2023-05-10T15:08:35;4.40;;;2.90;;
7203;SDS011;3643;52.460;13.322;2023-05-10T15:11:04;3.00;;;2.77;;
7203;SDS011;3643;52.460;13.322;2023-05-10T15:13:32;4.60;;;3.30;;
7203;SDS011;3643;52.460;13.322;2023-05-10T15:16:02;6.27;;;4.63;;
7203;SDS011;3643;52.460;13.322;2023-05-10T15:18:30;5.93;;;3.87;;
7203;SDS011;3643;52.460;13.322;2023-05-10T15:20:59;5.27;;;3.70;;
7203;SDS011;3643;52.460;13.322;2023-05-10T15:23:27;8.03;;;6.50;;
7203;SDS011;3643;52.460;13.322;2023-05-10T15:25:56;11.00;;;7.40;;
7203;SDS011;3643;52.460;13.322;2023-05-10T15:28:24;9.17;;;4.67;;
7203;SDS011;3643;52.460;13.322;2023-05-10T15:30:52;5.97;;;4.60;;
7203;SDS011;3643;52.460;13.322;2023-05-10T15:33:22;3.40;;;3.07;;
7203;SDS011;3643;52.460;13.322;2023-05-10T15:35:50;3.90;;;2.50;;
7203;SDS011;3643;52.460;13.322;2023-05-10T15:38:19;4.70;;;3.70;;
7203;SDS011;3643;52.460;13.322;2023-05-10T15:40:48;4.80;;;2.93;;
7203;SDS011;3643;52.460;13.322;2023-05-10T15:43:17;4.50;;;3.03;;
7203;SDS011;3643;52.460;13.322;2023-05-10T15:45:45;2.70;;;2.50;;
7203;SDS011;3643;52.460;13.322;2023-05-10T15:48:13;3.80;;;3.23;;
7203;SDS011;3643;52.460;13.322;2023-05-10T15:50:44;4.70;;;3.10;;
7203;SDS011;3643;52.460;13.322;2023-05-10T15:53:12;3.20;;;2.77;;
7203;SDS011;3643;52.460;13.322;2023-05-10T15:55:40;3.30;;;2.80;;
7203;SDS011;3643;52.460;13.322;2023-05-10T15:58:09;5.03;;;3.53;;
7203;SDS011;3643;52.460;13.322;2023-05-10T16:00:37;7.93;;;3.50;;
7203;SDS011;3643;52.460;13.322;2023-05-10T16:03:06;5.20;;;3.50;;
7203;SDS011;3643;52.460;13.322;2023-05-10T16:05:35;5.87;;;3.30;;
7203;SDS011;3643;52.460;13.322;2023-05-10T16:08:05;10.20;;;7.10;;
7203;SDS011;3643;52.460;13.322;2023-05-10T16:10:34;5.93;;;5.13;;
7203;SDS011;3643;52.460;13.322;2023-05-10T16:13:03;7.57;;;6.47;;
7203;SDS011;3643;52.460;13.322;2023-05-10T16:15:33;7.00;;;3.80;;
7203;SDS011;3643;52.460;13.322;2023-05-10T16:18:02;6.63;;;4.13;;
7203;SDS011;3643;52.460;13.322;2023-05-10T16:20:31;4.60;;;4.10;;
7203;SDS011;3643;52.460;13.322;2023-05-10T16:23:00;5.43;;;4.50;;
7203;SDS011;3643;52.460;13.322;2023-05-10T16:25:32;4.40;;;4.00;;
7203;SDS011;3643;52.460;13.322;2023-05-10T16:28:01;6.20;;;4.47;;
7203;SDS011;3643;52.460;13.322;2023-05-10T16:30:30;7.77;;;6.30;;
7203;SDS011;3643;52.460;13.322;2023-05-10T16:32:59;11.63;;;8.63;;
7203;SDS011;3643;52.460;13.322;2023-05-10T16:35:28;7.57;;;5.60;;
7203;SDS011;3643;52.460;13.322;2023-05-10T16:37:56;5.83;;;4.80;;
7203;SDS011;3643;52.460;13.322;2023-05-10T16:40:25;5.00;;;4.50;;
7203;SDS011;3643;52.460;13.322;2023-05-10T16:42:55;14.70;;;8.27;;
7203;SDS011;3643;52.460;13.322;2023-05-10T16:45:26;8.07;;;5.83;;
7203;SDS011;3643;52.460;13.322;2023-05-10T16:47:57;7.67;;;4.93;;
7203;SDS011;3643;52.460;13.322;2023-05-10T16:50:26;8.40;;;5.80;;
7203;SDS011;3643;52.460;13.322;2023-05-10T16:52:54;6.30;;;5.37;;
7203;SDS011;3643;52.460;13.322;2023-05-10T16:55:23;7.70;;;5.87;;
7203;SDS011;3643;52.460;13.322;2023-05-10T16:57:51;7.27;;;5.20;;
7203;SDS011;3643;52.460;13.322;2023-05-10T17:00:26;5.70;;;4.27;;
7203;SDS011;3643;52.460;13.322;2023-05-10T17:02:55;5.83;;;4.43;;
7203;SDS011;3643;52.460;13.322;2023-05-10T17:05:23;7.60;;;5.10;;
7203;SDS011;3643;52.460;13.322;2023-05-10T17:07:53;5.63;;;3.90;;
7203;SDS011;3643;52.460;13.322;2023-05-10T17:10:21;4.87;;;4.33;;
7203;SDS011;3643;52.460;13.322;2023-05-10T17:12:49;6.20;;;5.47;;
7203;SDS011;3643;52.460;13.322;2023-05-10T17:15:19;5.43;;;4.90;;
7203;SDS011;3643;52.460;13.322;2023-05-10T17:17:49;15.17;;;10.90;;
7203;SDS011;3643;52.460;13.322;2023-05-10T17:20:17;7.33;;;5.67;;
7203;SDS011;3643;52.460;13.322;2023-05-10T17:22:47;6.87;;;5.57;;
7203;SDS011;3643;52.460;13.322;2023-05-10T17:25:16;12.07;;;8.27;;
7203;SDS011;3643;52.460;13.322;2023-05-10T17:27:45;10.90;;;8.70;;
7203;SDS011;3643;52.460;13.322;2023-05-10T17:30:13;8.63;;;6.83;;
7203;SDS011;3643;52.460;13.322;2023-05-10T17:32:42;9.03;;;7.50;;
7203;SDS011;3643;52.460;13.322;2023-05-10T17:35:12;6.77;;;5.20;;
7203;SDS011;3643;52.460;13.322;2023-05-10T17:37:40;10.43;;;7.47;;